createdAt,value
2023-03-11T00:00:08.461Z,78
2023-03-11T00:01:08.710Z,77
2023-03-11T00:02:08.340Z,77
2023-03-11T00:03:08.070Z,77
2023-03-11T00:04:08.370Z,77
2023-03-11T00:05:08.757Z,77
2023-03-11T00:06:08.189Z,77
2023-03-11T00:07:08.230Z,77
2023-03-11T00:08:08.372Z,77
2023-03-11T00:09:08.598Z,77
2023-03-11T00:10:07.778Z,77
2023-03-11T00:11:08.367Z,77
2023-03-11T00:12:08.564Z,77
2023-03-11T00:13:08.211Z,77
2023-03-11T00:14:08.013Z,77
2023-03-11T00:15:08.273Z,77
2023-03-11T00:16:08.633Z,77
2023-03-11T00:17:08.895Z,77
2023-03-11T00:18:08.129Z,77
2023-03-11T00:19:08.279Z,76
2023-03-11T00:21:08.032Z,76
2023-03-11T00:22:08.077Z,76
2023-03-11T00:23:08.494Z,76
2023-03-11T00:24:08.816Z,76
2023-03-11T00:25:08.189Z,76
2023-03-11T00:26:08.290Z,75
2023-03-11T00:28:08.818Z,75
2023-03-11T00:29:09.015Z,75
2023-03-11T00:30:08.316Z,75
2023-03-11T00:31:08.575Z,74
2023-03-11T00:32:08.629Z,74
2023-03-11T00:33:08.196Z,74
2023-03-11T00:34:08.366Z,74
2023-03-11T00:35:08.568Z,74
2023-03-11T00:36:08.166Z,74
2023-03-11T00:37:07.820Z,74
2023-03-11T00:38:08.135Z,74
2023-03-11T00:39:08.494Z,73
2023-03-11T00:40:09.030Z,73
2023-03-11T00:41:08.235Z,73
2023-03-11T00:43:08.631Z,73
2023-03-11T00:44:08.949Z,73
2023-03-11T00:46:08.686Z,73
2023-03-11T00:47:08.709Z,73
2023-03-11T00:48:08.057Z,73
2023-03-11T00:49:08.360Z,73
2023-03-11T00:50:08.671Z,73
2023-03-11T00:51:07.959Z,72
2023-03-11T00:52:08.151Z,72
2023-03-11T00:53:08.597Z,72
2023-03-11T00:54:07.778Z,72
2023-03-11T00:56:08.222Z,72
2023-03-11T00:58:08.169Z,72
2023-03-11T00:59:08.592Z,72
2023-03-11T01:00:08.578Z,72
2023-03-11T01:01:08.730Z,72
2023-03-11T01:02:07.938Z,72
2023-03-11T01:03:08.315Z,72
2023-03-11T01:04:08.530Z,72
2023-03-11T01:05:08.600Z,72
2023-03-11T01:07:10.422Z,72
2023-03-11T01:09:08.059Z,72
2023-03-11T01:11:08.598Z,72
2023-03-11T01:12:07.894Z,72
2023-03-11T01:13:08.229Z,72
2023-03-11T01:14:08.428Z,72
2023-03-11T01:15:08.706Z,72
2023-03-11T01:16:08.169Z,72
2023-03-11T01:17:08.191Z,72
2023-03-11T01:18:08.614Z,72
2023-03-11T01:19:08.605Z,72
2023-03-11T01:21:08.026Z,72
2023-03-11T01:22:08.354Z,72
2023-03-11T01:23:08.643Z,72
2023-03-11T01:24:07.992Z,72
2023-03-11T01:25:08.216Z,72
2023-03-11T01:27:08.744Z,72
2023-03-11T01:28:08.041Z,72
2023-03-11T01:29:08.320Z,71
2023-03-11T01:30:08.500Z,71
2023-03-11T01:31:08.728Z,71
2023-03-11T01:32:07.999Z,71
2023-03-11T01:33:08.214Z,71
2023-03-11T01:35:08.955Z,71
2023-03-11T01:36:08.353Z,71
2023-03-11T01:37:08.208Z,71
2023-03-11T01:38:08.625Z,71
2023-03-11T01:39:08.779Z,71
2023-03-11T01:40:07.901Z,71
2023-03-11T01:41:08.380Z,71
2023-03-11T01:42:08.446Z,71
2023-03-11T01:43:08.862Z,71
2023-03-11T01:44:07.818Z,71
2023-03-11T01:45:08.110Z,71
2023-03-11T01:46:08.931Z,71
2023-03-11T01:47:08.861Z,71
2023-03-11T01:48:08.140Z,71
2023-03-11T01:49:08.341Z,71
2023-03-11T01:50:08.484Z,71
2023-03-11T01:51:08.337Z,71
2023-03-11T01:52:08.651Z,71
2023-03-11T01:53:08.179Z,71
2023-03-11T01:54:08.334Z,71
2023-03-11T01:55:08.568Z,71
2023-03-11T01:56:07.894Z,71
2023-03-11T01:57:08.107Z,71
2023-03-11T01:58:08.285Z,71
2023-03-11T01:59:08.339Z,71
2023-03-11T02:00:07.775Z,71
2023-03-11T02:01:08.232Z,71
2023-03-11T02:02:08.899Z,71
2023-03-11T02:03:08.927Z,71
2023-03-11T02:04:08.106Z,71
2023-03-11T02:05:08.389Z,71
2023-03-11T02:06:08.171Z,71
2023-03-11T02:07:08.385Z,71
2023-03-11T02:08:08.570Z,71
2023-03-11T02:09:07.890Z,71
2023-03-11T02:10:08.199Z,71
2023-03-11T02:11:08.476Z,71
2023-03-11T02:12:08.911Z,71
2023-03-11T02:13:08.108Z,71
2023-03-11T02:14:08.272Z,71
2023-03-11T02:15:08.271Z,71
2023-03-11T02:16:08.653Z,71
2023-03-11T02:17:08.495Z,71
2023-03-11T02:18:08.420Z,71
2023-03-11T02:19:08.463Z,71
2023-03-11T02:20:08.444Z,71
2023-03-11T02:21:08.558Z,71
2023-03-11T02:23:08.238Z,71
2023-03-11T02:24:08.659Z,71
2023-03-11T02:25:08.848Z,71
2023-03-11T02:26:08.226Z,71
2023-03-11T02:27:08.285Z,71
2023-03-11T02:28:08.180Z,71
2023-03-11T02:29:08.634Z,71
2023-03-11T02:30:08.036Z,71
2023-03-11T02:31:08.687Z,71
2023-03-11T02:32:08.608Z,71
2023-03-11T02:33:07.988Z,71
2023-03-11T02:34:08.332Z,71
2023-03-11T02:35:08.543Z,72
2023-03-11T02:37:08.841Z,72
2023-03-11T02:38:08.108Z,72
2023-03-11T02:39:08.623Z,72
2023-03-11T02:41:08.453Z,72
2023-03-11T02:43:08.695Z,72
2023-03-11T02:44:08.699Z,72
2023-03-11T02:45:08.139Z,72
2023-03-11T02:46:08.500Z,72
2023-03-11T02:47:09.118Z,72
2023-03-11T02:48:08.168Z,72
2023-03-11T02:49:08.492Z,72
2023-03-11T02:50:09.113Z,72
2023-03-11T02:51:08.298Z,72
2023-03-11T02:52:07.874Z,72
2023-03-11T02:53:08.253Z,73
2023-03-11T02:54:08.399Z,73
2023-03-11T02:56:08.044Z,73
2023-03-11T02:57:08.170Z,73
2023-03-11T02:58:08.500Z,73
2023-03-11T02:59:08.761Z,73
2023-03-11T03:00:08.139Z,73
2023-03-11T03:01:08.313Z,73
2023-03-11T03:02:08.870Z,73
2023-03-11T03:07:08.116Z,73
2023-03-11T03:09:08.739Z,73
2023-03-11T03:10:08.718Z,73
2023-03-11T03:11:08.265Z,73
2023-03-11T03:12:09.004Z,73
2023-03-11T03:13:08.271Z,73
2023-03-11T03:14:08.528Z,73
2023-03-11T03:15:08.656Z,73
2023-03-11T03:16:09.055Z,73
2023-03-11T03:17:08.388Z,73
2023-03-11T03:19:08.486Z,73
2023-03-11T03:20:08.792Z,73
2023-03-11T03:21:07.996Z,73
2023-03-11T03:22:08.209Z,73
2023-03-11T03:23:08.608Z,73
2023-03-11T03:24:08.669Z,73
2023-03-11T03:25:08.239Z,74
2023-03-11T03:26:08.273Z,74
2023-03-11T03:28:07.905Z,74
2023-03-11T03:29:08.116Z,74
2023-03-11T03:30:08.730Z,75
2023-03-11T03:31:08.123Z,75
2023-03-11T03:32:08.580Z,75
2023-03-11T03:33:08.757Z,76
2023-03-11T03:34:07.987Z,76
2023-03-11T03:35:08.181Z,76
2023-03-11T03:36:08.752Z,76
2023-03-11T03:37:08.647Z,76
2023-03-11T03:38:07.736Z,76
2023-03-11T03:40:08.570Z,77
2023-03-11T03:41:08.518Z,77
2023-03-11T03:44:08.323Z,77
2023-03-11T03:45:08.728Z,77
2023-03-11T03:46:08.369Z,77
2023-03-11T03:47:08.372Z,77
2023-03-11T03:48:08.449Z,77
2023-03-11T03:49:08.531Z,77
2023-03-11T03:51:08.658Z,77
2023-03-11T03:52:08.911Z,78
2023-03-11T03:53:07.943Z,78
2023-03-11T03:54:08.087Z,78
2023-03-11T03:55:08.318Z,78
2023-03-11T03:56:08.923Z,78
2023-03-11T03:57:08.066Z,78
2023-03-11T03:58:08.338Z,78
2023-03-11T03:59:08.599Z,78
2023-03-11T04:00:08.077Z,78
2023-03-11T04:01:08.385Z,78
2023-03-11T04:03:08.189Z,78
2023-03-11T04:04:08.264Z,78
2023-03-11T04:05:08.262Z,78
2023-03-11T04:07:08.851Z,78
2023-03-11T04:08:08.175Z,77
2023-03-11T04:09:08.298Z,77
2023-03-11T04:10:08.602Z,77
2023-03-11T04:11:07.889Z,77
2023-03-11T04:12:08.300Z,77
2023-03-11T04:13:08.801Z,77
2023-03-11T04:14:08.093Z,77
2023-03-11T04:15:08.436Z,77
2023-03-11T04:16:08.853Z,77
2023-03-11T04:17:08.393Z,77
2023-03-11T04:18:08.319Z,77
2023-03-11T04:20:08.286Z,77
2023-03-11T04:21:08.705Z,77
2023-03-11T04:22:08.195Z,77
2023-03-11T04:23:08.186Z,77
2023-03-11T04:24:08.442Z,77
2023-03-11T04:25:08.945Z,77
2023-03-11T04:26:08.654Z,77
2023-03-11T04:27:07.922Z,77
2023-03-11T04:28:08.032Z,77
2023-03-11T04:29:08.083Z,77
2023-03-11T04:30:08.899Z,77
2023-03-11T04:31:08.148Z,77
2023-03-11T04:32:08.236Z,77
2023-03-11T04:33:08.563Z,77
2023-03-11T04:35:08.779Z,76
2023-03-11T04:36:08.043Z,76
2023-03-11T04:37:08.315Z,76
2023-03-11T04:38:08.719Z,76
2023-03-11T04:39:08.997Z,76
2023-03-11T04:40:07.965Z,76
2023-03-11T04:41:08.071Z,76
2023-03-11T04:42:10.307Z,76
2023-03-11T04:43:08.917Z,76
2023-03-11T04:44:08.187Z,76
2023-03-11T04:45:08.598Z,76
2023-03-11T04:46:08.764Z,75
2023-03-11T04:48:08.139Z,75
2023-03-11T04:49:08.678Z,75
2023-03-11T04:50:08.677Z,75
2023-03-11T04:51:08.166Z,75
2023-03-11T04:52:08.011Z,75
2023-03-11T04:53:08.541Z,75
2023-03-11T04:54:08.024Z,74
2023-03-11T04:55:08.465Z,74
2023-03-11T04:56:08.483Z,74
2023-03-11T04:57:08.822Z,74
2023-03-11T04:58:07.818Z,74
2023-03-11T04:59:08.024Z,74
2023-03-11T05:00:08.411Z,74
2023-03-11T05:01:08.204Z,74
2023-03-11T05:02:08.383Z,74
2023-03-11T05:05:08.478Z,73
2023-03-11T05:06:08.404Z,73
2023-03-11T05:07:08.698Z,73
2023-03-11T05:08:08.071Z,73
2023-03-11T05:09:08.095Z,73
2023-03-11T05:10:08.520Z,73
2023-03-11T05:11:08.509Z,73
2023-03-11T05:12:08.861Z,73
2023-03-11T05:15:08.617Z,73
2023-03-11T05:17:08.214Z,73
2023-03-11T05:18:08.107Z,73
2023-03-11T05:19:08.264Z,73
2023-03-11T05:20:08.472Z,73
2023-03-11T05:21:08.711Z,73
2023-03-11T05:22:08.323Z,73
2023-03-11T05:25:08.372Z,73
2023-03-11T05:26:08.254Z,73
2023-03-11T05:27:08.530Z,73
2023-03-11T05:29:07.903Z,73
2023-03-11T05:30:08.443Z,73
2023-03-11T05:31:08.968Z,72
2023-03-11T05:32:08.545Z,72
2023-03-11T05:33:08.223Z,73
2023-03-11T05:34:08.593Z,72
2023-03-11T05:35:09.000Z,72
2023-03-11T05:36:08.403Z,72
2023-03-11T05:37:09.639Z,72
2023-03-11T05:38:08.667Z,72
2023-03-11T05:39:08.022Z,72
2023-03-11T05:40:08.160Z,72
2023-03-11T05:41:08.548Z,72
2023-03-11T05:42:08.899Z,72
2023-03-11T05:43:07.869Z,72
2023-03-11T05:44:08.100Z,72
2023-03-11T05:45:08.295Z,72
2023-03-11T05:46:09.151Z,72
2023-03-11T05:47:08.293Z,72
2023-03-11T05:48:08.655Z,72
2023-03-11T05:51:08.435Z,72
2023-03-11T05:52:08.698Z,73
2023-03-11T05:53:07.930Z,73
2023-03-11T05:54:08.175Z,73
2023-03-11T05:55:08.586Z,73
2023-03-11T05:56:08.720Z,73
2023-03-11T05:57:09.043Z,73
2023-03-11T05:58:08.467Z,73
2023-03-11T05:59:08.608Z,73
2023-03-11T06:01:08.208Z,73
2023-03-11T06:02:08.670Z,73
2023-03-11T06:03:08.921Z,73
2023-03-11T06:04:08.679Z,73
2023-03-11T06:05:15.126Z,73
2023-03-11T06:06:08.696Z,73
2023-03-11T06:07:08.118Z,73
2023-03-11T06:08:08.211Z,73
2023-03-11T06:09:08.448Z,73
2023-03-11T06:10:08.944Z,73
2023-03-11T06:11:08.252Z,73
2023-03-11T06:12:08.319Z,73
2023-03-11T06:13:08.228Z,73
2023-03-11T06:14:08.568Z,73
2023-03-11T06:15:08.926Z,73
2023-03-11T06:16:08.532Z,73
2023-03-11T06:17:08.307Z,73
2023-03-11T06:18:08.780Z,73
2023-03-11T06:19:07.906Z,73
2023-03-11T06:20:08.150Z,73
2023-03-11T06:21:08.599Z,73
2023-03-11T06:22:08.763Z,73
2023-03-11T06:23:07.880Z,73
2023-03-11T06:24:08.217Z,73
2023-03-11T06:25:08.724Z,73
2023-03-11T06:26:08.197Z,73
2023-03-11T06:27:08.482Z,73
2023-03-11T06:28:08.710Z,73
2023-03-11T06:30:08.592Z,73
2023-03-11T06:31:08.854Z,73
2023-03-11T06:32:08.162Z,73
2023-03-11T06:33:08.219Z,73
2023-03-11T06:34:08.492Z,73
2023-03-11T06:36:08.414Z,73
2023-03-11T06:37:08.409Z,73
2023-03-11T06:38:08.720Z,73
2023-03-11T06:39:07.857Z,73
2023-03-11T06:40:08.032Z,73
2023-03-11T06:41:08.214Z,73
2023-03-11T06:42:08.397Z,73
2023-03-11T06:43:08.834Z,73
2023-03-11T06:44:08.193Z,73
2023-03-11T06:45:08.578Z,73
2023-03-11T06:46:08.718Z,73
2023-03-11T06:47:08.838Z,73
2023-03-11T06:48:08.134Z,73
2023-03-11T06:49:08.466Z,73
2023-03-11T06:50:08.802Z,73
2023-03-11T06:51:08.015Z,73
2023-03-11T06:52:08.352Z,73
2023-03-11T06:53:08.636Z,73
2023-03-11T06:54:07.933Z,73
2023-03-11T06:55:08.191Z,73
2023-03-11T06:57:08.886Z,73
2023-03-11T06:58:08.049Z,73
2023-03-11T07:00:07.850Z,73
2023-03-11T07:02:08.474Z,72
2023-03-11T07:03:08.421Z,72
2023-03-11T07:04:09.125Z,72
2023-03-11T07:05:08.236Z,72
2023-03-11T07:07:08.769Z,72
2023-03-11T07:08:08.113Z,72
2023-03-11T07:09:08.458Z,72
2023-03-11T07:10:08.650Z,72
2023-03-11T07:11:08.479Z,72
2023-03-11T07:12:10.829Z,72
2023-03-11T07:14:07.959Z,72
2023-03-11T07:15:08.504Z,72
2023-03-11T07:16:07.973Z,72
2023-03-11T07:17:08.624Z,72
2023-03-11T07:18:08.821Z,72
2023-03-11T07:19:07.946Z,72
2023-03-11T07:20:08.174Z,72
2023-03-11T07:21:08.502Z,72
2023-03-11T07:23:08.193Z,71
2023-03-11T07:24:08.350Z,71
2023-03-11T07:25:08.825Z,71
2023-03-11T07:26:08.274Z,71
2023-03-11T07:27:08.650Z,71
2023-03-11T07:28:08.793Z,71
2023-03-11T07:29:07.961Z,71
2023-03-11T07:30:08.527Z,71
2023-03-11T07:31:08.191Z,71
2023-03-11T07:32:08.943Z,71
2023-03-11T07:33:08.759Z,71
2023-03-11T07:34:08.096Z,71
2023-03-11T07:35:08.297Z,71
2023-03-11T07:36:08.178Z,70
2023-03-11T07:37:08.318Z,70
2023-03-11T07:38:08.636Z,70
2023-03-11T07:39:10.632Z,70
2023-03-11T07:40:08.104Z,70
2023-03-11T07:41:08.321Z,70
2023-03-11T07:42:08.634Z,71
2023-03-11T07:43:08.860Z,71
2023-03-11T07:44:09.876Z,71
2023-03-11T07:45:08.149Z,71
2023-03-11T07:46:09.002Z,70
2023-03-11T07:48:07.758Z,70
2023-03-11T07:49:08.173Z,70
2023-03-11T07:50:08.553Z,70
2023-03-11T07:51:08.817Z,70
2023-03-11T07:52:08.105Z,70
2023-03-11T07:53:08.395Z,70
2023-03-11T07:54:08.623Z,70
2023-03-11T07:55:08.686Z,70
2023-03-11T07:56:08.352Z,70
2023-03-11T07:57:08.416Z,70
2023-03-11T07:58:08.920Z,70
2023-03-11T07:59:08.183Z,70
2023-03-11T08:00:08.332Z,70
2023-03-11T08:01:08.741Z,69
2023-03-11T08:04:08.741Z,69
2023-03-11T08:05:08.961Z,69
2023-03-11T08:06:08.122Z,69
2023-03-11T08:07:08.322Z,69
2023-03-11T08:08:08.494Z,69
2023-03-11T08:09:07.845Z,69
2023-03-11T08:10:08.117Z,69
2023-03-11T08:11:08.499Z,69
2023-03-11T08:12:08.639Z,68
2023-03-11T08:13:07.982Z,68
2023-03-11T08:14:08.157Z,68
2023-03-11T08:15:08.456Z,68
2023-03-11T08:16:08.089Z,68
2023-03-11T08:17:08.631Z,68
2023-03-11T08:19:08.107Z,68
2023-03-11T08:20:08.260Z,68
2023-03-11T08:22:08.576Z,68
2023-03-11T08:23:08.417Z,68
2023-03-11T08:24:09.766Z,68
2023-03-11T08:25:08.322Z,68
2023-03-11T08:26:08.807Z,67
2023-03-11T08:27:07.868Z,67
2023-03-11T08:28:08.118Z,67
2023-03-11T08:29:08.395Z,67
2023-03-11T08:30:08.965Z,67
2023-03-11T08:31:08.404Z,67
2023-03-11T08:32:08.377Z,67
2023-03-11T08:34:08.804Z,67
2023-03-11T08:35:09.107Z,66
2023-03-11T08:36:08.558Z,66
2023-03-11T08:37:08.402Z,66
2023-03-11T08:39:08.208Z,67
2023-03-11T08:40:08.497Z,67
2023-03-11T08:41:08.330Z,67
2023-03-11T08:42:08.150Z,67
2023-03-11T08:43:08.455Z,67
2023-03-11T08:44:08.742Z,67
2023-03-11T08:45:08.725Z,66
2023-03-11T08:46:08.281Z,66
2023-03-11T08:47:08.156Z,66
2023-03-11T08:48:08.346Z,67
2023-03-11T08:49:08.691Z,66
2023-03-11T08:50:08.872Z,66
2023-03-11T08:51:08.446Z,66
2023-03-11T08:52:08.592Z,66
2023-03-11T08:53:07.854Z,66
2023-03-11T08:54:08.408Z,66
2023-03-11T08:55:08.891Z,66
2023-03-11T08:56:07.995Z,66
2023-03-11T08:57:08.675Z,66
2023-03-11T08:58:08.556Z,66
2023-03-11T08:59:07.877Z,66
2023-03-11T09:00:08.239Z,65
2023-03-11T09:01:08.425Z,65
2023-03-11T09:02:08.705Z,66
2023-03-11T09:03:09.049Z,65
2023-03-11T09:04:07.847Z,65
2023-03-11T09:05:08.536Z,65
2023-03-11T09:06:08.578Z,65
2023-03-11T09:07:07.854Z,65
2023-03-11T09:09:08.457Z,65
2023-03-11T09:10:08.701Z,65
2023-03-11T09:11:08.164Z,65
2023-03-11T09:12:08.155Z,65
2023-03-11T09:13:08.479Z,65
2023-03-11T09:14:08.828Z,65
2023-03-11T09:15:08.060Z,65
2023-03-11T09:16:08.720Z,65
2023-03-11T09:17:08.779Z,65
2023-03-11T09:18:08.032Z,65
2023-03-11T09:19:08.444Z,64
2023-03-11T09:20:08.415Z,63
2023-03-11T09:21:07.985Z,63
2023-03-11T09:22:08.202Z,63
2023-03-11T09:23:08.347Z,63
2023-03-11T09:24:08.511Z,63
2023-03-11T09:25:08.736Z,63
2023-03-11T09:26:08.680Z,63
2023-03-11T09:28:07.932Z,64
2023-03-11T09:29:08.205Z,64
2023-03-11T09:30:08.760Z,64
2023-03-11T09:31:08.262Z,63
2023-03-11T09:32:08.280Z,63
2023-03-11T09:33:08.426Z,63
2023-03-11T09:34:08.640Z,63
2023-03-11T09:35:08.080Z,63
2023-03-11T09:36:08.538Z,62
2023-03-11T09:37:08.505Z,62
2023-03-11T09:38:07.874Z,63
2023-03-11T09:39:08.254Z,63
2023-03-11T09:40:08.384Z,63
2023-03-11T09:41:08.780Z,63
2023-03-11T09:42:08.120Z,63
2023-03-11T09:43:08.276Z,63
2023-03-11T09:44:08.866Z,63
2023-03-11T09:45:08.388Z,63
2023-03-11T09:46:08.477Z,63
2023-03-11T09:47:08.334Z,63
2023-03-11T09:48:08.140Z,62
2023-03-11T09:49:08.227Z,63
2023-03-11T09:50:08.651Z,63
2023-03-11T09:51:07.959Z,63
2023-03-11T09:52:08.186Z,63
2023-03-11T09:53:08.461Z,63
2023-03-11T09:54:08.658Z,63
2023-03-11T09:55:07.943Z,63
2023-03-11T09:56:08.247Z,63
2023-03-11T09:57:08.532Z,63
2023-03-11T09:58:08.616Z,62
2023-03-11T09:59:08.100Z,62
2023-03-11T10:00:08.388Z,62
2023-03-11T10:01:08.628Z,62
2023-03-11T10:02:08.123Z,63
2023-03-11T10:03:08.480Z,62
2023-03-11T10:04:08.217Z,62
2023-03-11T10:05:08.717Z,62
2023-03-11T10:06:07.901Z,63
2023-03-11T10:08:08.466Z,62
2023-03-11T10:09:08.655Z,63
2023-03-11T10:10:07.988Z,63
2023-03-11T10:11:08.476Z,62
2023-03-11T10:12:08.611Z,62
2023-03-11T10:13:08.082Z,62
2023-03-11T10:14:08.450Z,62
2023-03-11T10:15:08.576Z,63
2023-03-11T10:16:07.823Z,63
2023-03-11T10:17:08.179Z,63
2023-03-11T10:18:08.682Z,63
2023-03-11T10:20:08.276Z,63
2023-03-11T10:21:08.447Z,63
2023-03-11T10:22:08.666Z,63
2023-03-11T10:23:07.867Z,62
2023-03-11T10:24:08.189Z,62
2023-03-11T10:25:08.528Z,62
2023-03-11T10:27:08.271Z,62
2023-03-11T10:28:08.278Z,62
2023-03-11T10:29:08.482Z,62
2023-03-11T10:30:08.968Z,62
2023-03-11T10:31:08.014Z,62
2023-03-11T10:32:08.459Z,62
2023-03-11T10:34:08.010Z,62
2023-03-11T10:35:08.450Z,62
2023-03-11T10:36:08.852Z,62
2023-03-11T10:37:08.668Z,62
2023-03-11T10:38:07.944Z,62
2023-03-11T10:39:08.429Z,62
2023-03-11T10:40:08.692Z,62
2023-03-11T10:41:08.340Z,62
2023-03-11T10:42:08.775Z,62
2023-03-11T10:44:07.877Z,61
2023-03-11T10:45:08.043Z,61
2023-03-11T10:46:08.976Z,61
2023-03-11T10:47:08.877Z,61
2023-03-11T10:48:07.730Z,62
2023-03-11T10:49:08.291Z,61
2023-03-11T10:50:08.523Z,61
2023-03-11T10:51:07.938Z,62
2023-03-11T10:52:08.073Z,62
2023-03-11T10:53:08.255Z,62
2023-03-11T10:54:08.412Z,61
2023-03-11T10:55:08.864Z,61
2023-03-11T10:56:07.779Z,61
2023-03-11T10:57:08.366Z,60
2023-03-11T10:58:08.470Z,60
2023-03-11T10:59:08.623Z,60
2023-03-11T11:00:07.916Z,60
2023-03-11T11:01:08.496Z,59
2023-03-11T11:02:08.593Z,59
2023-03-11T11:03:07.895Z,59
2023-03-11T11:04:08.448Z,59
2023-03-11T11:05:08.297Z,59
2023-03-11T11:07:07.958Z,59
2023-03-11T11:08:08.085Z,59
2023-03-11T11:09:08.500Z,58
2023-03-11T11:10:08.752Z,58
2023-03-11T11:11:07.891Z,58
2023-03-11T11:12:08.197Z,58
2023-03-11T11:13:08.435Z,58
2023-03-11T11:14:08.677Z,58
2023-03-11T11:15:08.030Z,58
2023-03-11T11:16:07.982Z,58
2023-03-11T11:17:08.430Z,57
2023-03-11T11:18:08.576Z,58
2023-03-11T11:19:08.668Z,58
2023-03-11T11:20:08.059Z,58
2023-03-11T11:21:08.504Z,58
2023-03-11T11:22:08.755Z,58
2023-03-11T11:23:07.754Z,57
2023-03-11T11:24:07.909Z,58
2023-03-11T11:25:08.661Z,58
2023-03-11T11:26:08.872Z,58
2023-03-11T11:27:08.090Z,58
2023-03-11T11:28:08.480Z,58
2023-03-11T11:29:10.959Z,58
2023-03-11T11:31:08.333Z,58
2023-03-11T11:32:08.465Z,58
2023-03-11T11:33:08.712Z,59
2023-03-11T11:34:07.930Z,59
2023-03-11T11:35:08.165Z,59
2023-03-11T11:36:08.406Z,59
2023-03-11T11:37:08.640Z,59
2023-03-11T11:38:07.909Z,59
2023-03-11T11:39:08.147Z,59
2023-03-11T11:40:09.084Z,59
2023-03-11T11:41:08.680Z,59
2023-03-11T11:42:08.850Z,59
2023-03-11T11:43:08.027Z,59
2023-03-11T11:44:08.331Z,58
2023-03-11T11:45:07.979Z,59
2023-03-11T11:46:08.633Z,59
2023-03-11T11:47:10.696Z,59
2023-03-11T11:48:08.118Z,59
2023-03-11T11:49:08.150Z,59
2023-03-11T11:50:08.367Z,58
2023-03-11T11:51:07.913Z,58
2023-03-11T11:52:08.171Z,58
2023-03-11T11:53:08.338Z,58
2023-03-11T11:54:08.610Z,58
2023-03-11T11:55:08.305Z,58
2023-03-11T11:57:08.699Z,59
2023-03-11T11:58:07.748Z,59
2023-03-11T11:59:08.033Z,59
2023-03-11T12:01:08.032Z,59
2023-03-11T12:02:08.340Z,59
2023-03-11T12:03:08.493Z,59
2023-03-11T12:04:08.784Z,59
2023-03-11T12:06:08.745Z,59
2023-03-11T12:07:08.524Z,59
2023-03-11T12:08:07.843Z,60
2023-03-11T12:09:07.999Z,59
2023-03-11T12:10:27.478Z,59
2023-03-11T12:11:08.362Z,60
2023-03-11T12:12:08.357Z,60
2023-03-11T12:13:08.618Z,60
2023-03-11T12:14:07.982Z,60
2023-03-11T12:15:08.406Z,60
2023-03-11T12:16:08.608Z,60
2023-03-11T12:17:10.436Z,60
2023-03-11T12:18:07.866Z,59
2023-03-11T12:19:08.290Z,59
2023-03-11T12:20:08.776Z,59
2023-03-11T12:21:08.266Z,59
2023-03-11T12:22:07.759Z,59
2023-03-11T12:23:07.846Z,59
2023-03-11T12:24:08.456Z,59
2023-03-11T12:25:08.610Z,59
2023-03-11T12:26:08.225Z,59
2023-03-11T12:27:08.721Z,59
2023-03-11T12:28:08.018Z,59
2023-03-11T12:29:08.110Z,59
2023-03-11T12:30:08.394Z,60
2023-03-11T12:31:08.455Z,60
2023-03-11T12:32:08.521Z,60
2023-03-11T12:33:08.963Z,60
2023-03-11T12:34:07.881Z,60
2023-03-11T12:35:08.224Z,60
2023-03-11T12:36:08.623Z,59
2023-03-11T12:37:08.721Z,59
2023-03-11T12:38:08.185Z,59
2023-03-11T12:39:08.167Z,59
2023-03-11T12:41:07.979Z,59
2023-03-11T12:42:07.882Z,59
2023-03-11T12:43:08.569Z,59
2023-03-11T12:44:08.920Z,59
2023-03-11T12:45:08.010Z,59
2023-03-11T12:46:08.188Z,59
2023-03-11T12:47:08.952Z,59
2023-03-11T12:49:08.371Z,59
2023-03-11T12:50:08.599Z,59
2023-03-11T12:51:08.802Z,59
2023-03-11T12:55:07.937Z,59
2023-03-11T12:56:08.406Z,59
2023-03-11T12:57:08.766Z,59
2023-03-11T12:58:08.932Z,59
2023-03-11T12:59:08.077Z,59
2023-03-11T13:00:08.329Z,59
2023-03-11T13:01:08.650Z,59
2023-03-11T13:02:08.339Z,59
2023-03-11T13:03:08.556Z,59
2023-03-11T13:04:08.711Z,59
2023-03-11T13:05:08.037Z,59
2023-03-11T13:06:08.178Z,59
2023-03-11T13:07:08.367Z,59
2023-03-11T13:08:08.575Z,59
2023-03-11T13:09:08.901Z,59
2023-03-11T13:10:07.995Z,59
2023-03-11T13:11:08.677Z,59
2023-03-11T13:12:08.726Z,59
2023-03-11T13:13:08.032Z,59
2023-03-11T13:14:08.436Z,59
2023-03-11T13:16:08.910Z,59
2023-03-11T13:17:08.089Z,59
2023-03-11T13:18:08.291Z,59
2023-03-11T13:19:08.523Z,59
2023-03-11T13:20:08.755Z,59
2023-03-11T13:21:08.419Z,59
2023-03-11T13:22:08.709Z,59
2023-03-11T13:23:07.974Z,59
2023-03-11T13:24:08.254Z,59
2023-03-11T13:25:08.423Z,59
2023-03-11T13:26:08.678Z,59
2023-03-11T13:27:10.810Z,59
2023-03-11T13:28:08.395Z,59
2023-03-11T13:29:08.785Z,59
2023-03-11T13:30:08.091Z,59
2023-03-11T13:31:08.664Z,59
2023-03-11T13:32:09.772Z,59
2023-03-11T13:33:07.962Z,59
2023-03-11T13:34:08.151Z,59
2023-03-11T13:35:08.517Z,59
2023-03-11T13:36:08.609Z,59
2023-03-11T13:37:08.750Z,59
2023-03-11T13:38:07.996Z,59
2023-03-11T13:40:08.624Z,59
2023-03-11T13:41:08.795Z,59
2023-03-11T13:42:08.186Z,58
2023-03-11T13:43:10.268Z,58
2023-03-11T13:44:08.490Z,58
2023-03-11T13:45:08.859Z,58
2023-03-11T13:46:08.376Z,58
2023-03-11T13:47:08.458Z,58
2023-03-11T13:48:08.951Z,58
2023-03-11T13:49:08.212Z,58
2023-03-11T13:50:08.357Z,58
2023-03-11T13:51:08.786Z,58
2023-03-11T13:52:07.992Z,58
2023-03-11T13:53:08.291Z,58
2023-03-11T13:54:08.959Z,57
2023-03-11T13:55:08.155Z,57
2023-03-11T13:56:08.575Z,57
2023-03-11T13:57:08.555Z,57
2023-03-11T13:58:07.836Z,57
2023-03-11T13:59:08.288Z,57
2023-03-11T14:00:08.520Z,57
2023-03-11T14:01:09.084Z,57
2023-03-11T14:02:08.057Z,57
2023-03-11T14:03:08.285Z,57
2023-03-11T14:05:08.400Z,57
2023-03-11T14:06:08.811Z,57
2023-03-11T14:07:08.070Z,56
2023-03-11T14:08:08.178Z,56
2023-03-11T14:09:08.629Z,56
2023-03-11T14:10:08.779Z,56
2023-03-11T14:11:07.926Z,56
2023-03-11T14:13:08.676Z,56
2023-03-11T14:14:07.996Z,56
2023-03-11T14:15:08.240Z,56
2023-03-11T14:16:08.741Z,56
2023-03-11T14:17:08.789Z,56
2023-03-11T14:18:08.118Z,56
2023-03-11T14:19:08.267Z,55
2023-03-11T14:20:08.705Z,55
2023-03-11T14:21:08.953Z,55
2023-03-11T14:22:08.220Z,55
2023-03-11T14:24:07.885Z,55
2023-03-11T14:25:08.158Z,55
2023-03-11T14:26:08.579Z,55
2023-03-11T14:27:08.687Z,55
2023-03-11T14:28:07.939Z,55
2023-03-11T14:29:08.477Z,55
2023-03-11T14:30:08.655Z,54
2023-03-11T14:31:07.828Z,54
2023-03-11T14:32:08.488Z,55
2023-03-11T14:33:08.878Z,55
2023-03-11T14:34:08.013Z,55
2023-03-11T14:35:08.574Z,55
2023-03-11T14:36:08.862Z,55
2023-03-11T14:37:08.815Z,55
2023-03-11T14:38:07.894Z,54
2023-03-11T14:39:08.530Z,54
2023-03-11T14:40:08.604Z,55
2023-03-11T14:41:07.918Z,55
2023-03-11T14:42:08.211Z,55
2023-03-11T14:43:08.602Z,55
2023-03-11T14:44:08.760Z,55
2023-03-11T14:45:08.034Z,55
2023-03-11T14:46:08.721Z,55
2023-03-11T14:47:08.814Z,55
2023-03-11T14:48:08.865Z,55
2023-03-11T14:49:08.100Z,55
2023-03-11T14:50:08.433Z,55
2023-03-11T14:51:08.569Z,55
2023-03-11T14:52:07.963Z,55
2023-03-11T14:53:10.939Z,55
2023-03-11T14:54:08.269Z,55
2023-03-11T14:55:09.054Z,55
2023-03-11T14:56:08.290Z,55
2023-03-11T14:57:08.512Z,55
2023-03-11T14:58:08.925Z,55
2023-03-11T14:59:16.755Z,55
2023-03-11T15:00:08.637Z,55
2023-03-11T15:01:09.002Z,56
2023-03-11T15:02:08.036Z,56
2023-03-11T15:03:08.314Z,56
2023-03-11T15:04:08.357Z,56
2023-03-11T15:05:08.686Z,56
2023-03-11T15:06:08.013Z,56
2023-03-11T15:07:08.326Z,56
2023-03-11T15:08:08.168Z,56
2023-03-11T15:09:08.710Z,56
2023-03-11T15:10:08.219Z,56
2023-03-11T15:11:09.605Z,56
2023-03-11T15:12:08.294Z,56
2023-03-11T15:13:08.685Z,56
2023-03-11T15:14:08.233Z,56
2023-03-11T15:15:08.655Z,56
2023-03-11T15:16:08.102Z,56
2023-03-11T15:17:08.477Z,56
2023-03-11T15:18:08.230Z,56
2023-03-11T15:20:08.718Z,56
2023-03-11T15:21:07.882Z,56
2023-03-11T15:22:08.273Z,55
2023-03-11T15:23:08.498Z,55
2023-03-11T15:24:08.637Z,55
2023-03-11T15:27:08.459Z,55
2023-03-11T15:28:08.728Z,55
2023-03-11T15:29:11.279Z,55
2023-03-11T15:30:08.269Z,55
2023-03-11T15:31:08.542Z,55
2023-03-11T15:32:10.296Z,55
2023-03-11T15:33:07.773Z,55
2023-03-11T15:34:08.130Z,55
2023-03-11T15:35:08.276Z,55
2023-03-11T15:38:08.990Z,55
2023-03-11T15:39:08.153Z,55
2023-03-11T15:40:08.455Z,55
2023-03-11T15:41:08.637Z,55